Home > Products > Valid Products > TAF

000
FTUS42 KTAE 290540
TAFVLD
TAF
KVLD 290540Z 2906/3006 00000KT P6SM SCT080 BKN250
     FM291400 36005KT P6SM SCT060
     FM300100 00000KT P6SM SCT060 SCT100=



000
FTUS42 KTAE 290540
TAFABY
TAF
KABY 290540Z 2906/3006 00000KT P6SM SCT080 BKN250
     FM291500 36007KT P6SM SCT070
     FM300100 00000KT P6SM SCT070 SCT250=



000
FTUS42 KTAE 290540
TAFDHN
TAF
KDHN 290540Z 2906/3006 VRB03KT P6SM SCT100 BKN250
     FM291400 36006KT P6SM BKN060
     FM300100 30003KT P6SM SCT050 SCT250=



000
FTUS42 KTAE 290540
TAFTLH
TAF
KTLH 290540Z 2906/3006 36003KT P6SM FEW080 SCT250
     FM291400 36006KT P6SM SCT060
     FM300100 00000KT P6SM SCT250=



000
FTUS42 KTAE 282327
TAFABY
TAF
KABY 282327Z 2900/2924 00000KT P6SM FEW090
     FM291400 35005KT P6SM SCT060=



000
FTUS42 KTAE 282327
TAFDHN
TAF
KDHN 282327Z 2900/2924 VRB04KT P6SM BKN250
     FM291400 35006KT P6SM FEW050
     FM292000 34007KT P6SM VCSH SCT060=



000
FTUS42 KTAE 282327
TAFTLH
TAF
KTLH 282327Z 2900/2924 00000KT P6SM SCT070 BKN250
     FM291400 36005KT P6SM FEW050
     FM291900 34006KT P6SM VCSH SCT060=



000
FTUS42 KTAE 282327
TAFVLD
TAF
KVLD 282327Z 2900/2924 00000KT P6SM SCT250
     FM291400 36005KT P6SM SCT060=



000
FTUS42 KTAE 281120
TAFDHN
TAF
KDHN 281120Z 2812/2912 10005KT P6SM BKN200
     FM281500 09005KT P6SM BKN060 BKN120
     FM290100 VRB03KT P6SM FEW060 BKN120=



000
FTUS42 KTAE 281120
TAFVLD
TAF
KVLD 281120Z 2812/2912 00000KT 6SM BR SCT020
     FM281400 06004KT P6SM SCT060 SCT200
     FM282200 05005KT P6SM VCSH BKN060 BKN200
     FM290200 00000KT P6SM FEW060 SCT200=



000
FTUS42 KTAE 281120
TAFTLH
TAF
KTLH 281120Z 2812/2912 09004KT P6SM SCT070 SCT200
     FM281500 07006KT P6SM SCT060 SCT150 BKN200
     FM282200 24005KT P6SM VCSH BKN060 OVC150
     FM290200 00000KT P6SM SCT060 BKN150=



000
FTUS42 KTAE 281120
TAFABY
TAF
KABY 281120Z 2812/2912 11004KT P6SM SCT070
     FM281500 06005KT P6SM SCT060 BKN200
     FM290100 05003KT P6SM FEW060 SCT200=



000
FTUS42 KTAE 280520
TAFDHN
TAF
KDHN 280520Z 2806/2906 VRB04KT P6SM BKN200
     FM281500 09005KT P6SM BKN060 BKN120
     FM290100 VRB03KT P6SM FEW060 BKN120=



000
FTUS42 KTAE 280520
TAFABY
TAF
KABY 280520Z 2806/2906 11004KT P6SM SCT070
     FM281500 06005KT P6SM SCT060 BKN200
     FM290100 05003KT P6SM FEW060 SCT200=



000
FTUS42 KTAE 280520
TAFVLD
TAF
KVLD 280520Z 2806/2906 00000KT P6SM SKC
     FM281000 00000KT 6SM BR SCT020
     FM281400 06004KT P6SM SCT060 SCT200
     FM282200 05005KT P6SM VCSH BKN060 BKN200
     FM290200 00000KT P6SM FEW060 SCT200=



000
FTUS42 KTAE 280520
TAFTLH
TAF
KTLH 280520Z 2806/2906 09004KT P6SM SCT070 SCT200
     FM281500 07006KT P6SM SCT060 SCT150 BKN200
     FM282200 24005KT P6SM VCSH BKN060 OVC150
     FM290200 00000KT P6SM SCT060 BKN150=



000
FTUS42 KTAE 272329
TAFTLH
TAF
KTLH 272329Z 2800/2824 VRB03KT P6SM FEW070 SCT250
     FM281500 VRB06KT P6SM SCT050 BKN250=



000
FTUS42 KTAE 272329
TAFVLD
TAF
KVLD 272329Z 2800/2824 VRB02KT P6SM SCT080
     FM281000 00000KT 4SM BR FEW250
     FM281300 06004KT P6SM SCT050=



000
FTUS42 KTAE 272329
TAFDHN
TAF
KDHN 272329Z 2800/2824 14005KT P6SM SCT250
     FM281300 VRB05KT P6SM SCT050=



000
FTUS42 KTAE 272329
TAFABY
TAF
KABY 272329Z 2800/2824 10005KT P6SM FEW070 SCT250
     FM281400 VRB04KT P6SM SCT050=



000
FTUS42 KTAE 271120
TAFTLH
TAF
KTLH 271120Z 2712/2812 10005KT P6SM FEW250
     FM271400 10007KT P6SM BKN070 BKN250
     FM280100 10003KT P6SM SCT250=



000
FTUS42 KTAE 271120
TAFABY
TAF
KABY 271120Z 2712/2812 14005KT P6SM FEW250
     FM271500 11008KT P6SM SCT070 SCT250
     FM280100 10004KT P6SM SCT250=



000
FTUS42 KTAE 271120
TAFVLD
TAF
KVLD 271120Z 2712/2812 14004KT P6SM SKC
     FM271800 09008KT P6SM BKN060
     FM280300 12003KT P6SM SKC=



000
FTUS42 KTAE 271120
TAFDHN
TAF
KDHN 271120Z 2712/2812 VRB04KT P6SM SCT250
     FM271400 13008KT P6SM FEW060 SCT250=



000
FTUS42 KTAE 262325
TAFTLH
TAF
KTLH 262325Z 2700/2724 VRB04KT P6SM SCT060=



000
FTUS42 KTAE 262325
TAFVLD
TAF
KVLD 262325Z 2700/2724 VRB03KT P6SM SCT070=



000
FTUS42 KTAE 262325
TAFABY
TAF
KABY 262325Z 2700/2724 VRB03KT P6SM SKC
     FM271500 11007KT P6SM FEW060=



000
FTUS42 KTAE 262325
TAFDHN
TAF
KDHN 262325Z 2700/2724 VRB05KT P6SM VCSH SCT060
     FM270200 VRB03KT P6SM FEW080 FEW250
     FM271400 11007KT P6SM SCT060=



    US Dept of Commerce
    National Oceanic and Atmospheric Administration
    National Weather Service
    1325 East West Highway
    Silver Spring, MD 20910
    Page Author: NWS Internet Services Team
Disclaimer
Information Quality
Credits
Glossary
Privacy Policy
Freedom of Information Act (FOIA)
About Us
Career Opportunities